Honaunau, HI (96726)

1:35 PM HST on August 03, 2015 (GMT -1000)
KEE KEE st Neighborhood | | Change Station
CLOSE
Current Station
Personal Weather Station
Location: Kealakekua, HI
Elevation: 1388 ft
Nearby Weather Stations

Elev 1388 ft 19.51 °N, 155.93 °W | Updated 6 seconds ago

Mostly Cloudy
Mostly Cloudy
83.1 °F
Feels Like 89 °F
N
7.2
Wind Variable Wind from South
Gusts 9.8 mph

Today
High -- | Low -- °F
--% Chance of Precip.
Yesterday
High -- | Low -- °F
Precip. -- in
6:00 AM 6:58 PM
Waning Gibbous, 83% visible
Pressure 29.82 in
Visibility 10.0 miles
Clouds Scattered Clouds 4500 ft
Scattered Clouds 9000 ft
Mostly Cloudy 20000 ft
Heat Index 89 °F
Dew Point 72 °F
Humidity 70%
Rainfall 0.18 in
Snow Depth Not available.
UV 10.0 out of 12
Pollen Not available.
Air Quality Not available.
Flu Activity Not available.
METAR PHKO 032253Z 36017G23KT 10SM SCT045 SCT090 BKN200 31/22 A2982 RMK AO2 SLP098 T03110217 PNO

More Conditions Fewer Conditions

Pressure 29.82 in
Visibility 10.0 miles
Clouds Scattered Clouds 4500 ft
Scattered Clouds 9000 ft
Mostly Cloudy 20000 ft
Heat Index 89 °F
Dew Point 72 °F
Humidity 70%
Rainfall 0.18 in
Snow Depth Not available.
UV 10.0 out of 12
Pollen Not available.
Air Quality Not available.
Flu Activity Not available.
METAR PHKO 032253Z 36017G23KT 10SM SCT045 SCT090 BKN200 31/22 A2982 RMK AO2 SLP098 T03110217 PNO

More Conditions Fewer Conditions

10-Day Weather Forecast

×

Almanac

Astronomy

Aug. 03, 2015 Rise Set
Actual Time
Civil Twilight
Nautical Twilight
Astronomical Twilight
Moon
Length of Visible Light
Length of Day
Tomorrow will be .
, % of the Moon is Illuminated

Today's Extremes

State Highs State Lows

Community

WunderPhotos

Upload Photos

1,843,790 photos uploaded!

WunderBlogs® & News

Nearby

Air Quality

  Air Quality AQ Index Pollutant
Not available.

Snow Depth

Station Depth Elevation

Earthquake Activity

City Distance Mag. Time & Date
Minimum magnitude displayed is 2.5.

Coastal Water Temperatures

Place Temperature

Stations

Nearby Weather Stations

Station Location Temp. Windchill Dew Point Humidity Wind Precip. Elev Updated Type